sensor_id;sensor_type;location;lat;lon;timestamp;P1;durP1;ratioP1;P2;durP2;ratioP2
75419;SDS011;63998;52.488;13.428;2023-04-03T00:01:15;4.80;;;1.17;;
75419;SDS011;63998;52.488;13.428;2023-04-03T00:03:41;2.97;;;1.00;;
75419;SDS011;63998;52.488;13.428;2023-04-03T00:06:06;4.75;;;1.10;;
75419;SDS011;63998;52.488;13.428;2023-04-03T00:08:38;4.10;;;1.20;;
75419;SDS011;63998;52.488;13.428;2023-04-03T00:11:08;2.88;;;0.85;;
75419;SDS011;63998;52.488;13.428;2023-04-03T00:13:33;3.35;;;1.45;;
75419;SDS011;63998;52.488;13.428;2023-04-03T00:15:59;5.83;;;1.30;;
75419;SDS011;63998;52.488;13.428;2023-04-03T00:18:25;4.18;;;1.00;;
75419;SDS011;63998;52.488;13.428;2023-04-03T00:20:50;4.68;;;1.05;;
75419;SDS011;63998;52.488;13.428;2023-04-03T00:23:16;2.03;;;1.02;;
75419;SDS011;63998;52.488;13.428;2023-04-03T00:25:44;2.47;;;1.05;;
75419;SDS011;63998;52.488;13.428;2023-04-03T00:28:09;2.75;;;1.00;;
75419;SDS011;63998;52.488;13.428;2023-04-03T00:30:35;6.82;;;1.35;;
75419;SDS011;63998;52.488;13.428;2023-04-03T00:33:03;3.17;;;1.10;;
75419;SDS011;63998;52.488;13.428;2023-04-03T00:35:28;5.43;;;1.15;;
75419;SDS011;63998;52.488;13.428;2023-04-03T00:37:56;2.83;;;1.10;;
75419;SDS011;63998;52.488;13.428;2023-04-03T00:40:23;4.78;;;1.23;;
75419;SDS011;63998;52.488;13.428;2023-04-03T00:42:56;3.95;;;1.20;;
75419;SDS011;63998;52.488;13.428;2023-04-03T00:45:29;3.38;;;1.00;;
75419;SDS011;63998;52.488;13.428;2023-04-03T00:48:06;3.45;;;0.98;;
75419;SDS011;63998;52.488;13.428;2023-04-03T00:50:40;5.50;;;1.20;;
75419;SDS011;63998;52.488;13.428;2023-04-03T00:53:08;4.00;;;1.35;;
75419;SDS011;63998;52.488;13.428;2023-04-03T00:55:36;3.60;;;1.00;;
75419;SDS011;63998;52.488;13.428;2023-04-03T00:58:03;4.70;;;1.10;;
75419;SDS011;63998;52.488;13.428;2023-04-03T01:00:34;2.38;;;0.68;;
75419;SDS011;63998;52.488;13.428;2023-04-03T01:03:03;4.00;;;0.98;;
75419;SDS011;63998;52.488;13.428;2023-04-03T01:05:30;3.03;;;0.90;;
75419;SDS011;63998;52.488;13.428;2023-04-03T01:07:56;3.05;;;0.90;;
75419;SDS011;63998;52.488;13.428;2023-04-03T01:10:25;2.60;;;0.70;;
75419;SDS011;63998;52.488;13.428;2023-04-03T01:12:51;2.65;;;1.00;;
75419;SDS011;63998;52.488;13.428;2023-04-03T01:15:23;7.82;;;1.27;;
75419;SDS011;63998;52.488;13.428;2023-04-03T01:17:55;3.97;;;0.90;;
75419;SDS011;63998;52.488;13.428;2023-04-03T01:25:44;2.58;;;0.73;;
75419;SDS011;63998;52.488;13.428;2023-04-03T01:28:18;4.45;;;1.20;;
75419;SDS011;63998;52.488;13.428;2023-04-03T01:33:23;3.50;;;1.02;;
75419;SDS011;63998;52.488;13.428;2023-04-03T01:35:51;3.28;;;1.15;;
75419;SDS011;63998;52.488;13.428;2023-04-03T01:38:16;4.03;;;1.00;;
75419;SDS011;63998;52.488;13.428;2023-04-03T01:40:44;4.13;;;1.05;;
75419;SDS011;63998;52.488;13.428;2023-04-03T01:43:11;2.72;;;1.08;;
75419;SDS011;63998;52.488;13.428;2023-04-03T01:45:36;3.05;;;0.75;;
75419;SDS011;63998;52.488;13.428;2023-04-03T01:48:02;3.53;;;1.00;;
75419;SDS011;63998;52.488;13.428;2023-04-03T01:50:30;1.80;;;0.77;;
75419;SDS011;63998;52.488;13.428;2023-04-03T01:52:56;3.67;;;1.00;;
75419;SDS011;63998;52.488;13.428;2023-04-03T01:55:24;3.45;;;1.02;;
75419;SDS011;63998;52.488;13.428;2023-04-03T01:57:49;4.35;;;1.30;;
75419;SDS011;63998;52.488;13.428;2023-04-03T02:00:14;18.17;;;7.07;;
75419;SDS011;63998;52.488;13.428;2023-04-03T02:02:40;11.73;;;6.13;;
75419;SDS011;63998;52.488;13.428;2023-04-03T02:05:08;8.73;;;4.95;;
75419;SDS011;63998;52.488;13.428;2023-04-03T02:07:33;16.60;;;8.82;;
75419;SDS011;63998;52.488;13.428;2023-04-03T02:09:59;6.38;;;4.53;;
75419;SDS011;63998;52.488;13.428;2023-04-03T02:12:25;9.30;;;7.53;;
75419;SDS011;63998;52.488;13.428;2023-04-03T02:14:50;6.47;;;4.53;;
75419;SDS011;63998;52.488;13.428;2023-04-03T02:17:18;5.82;;;2.13;;
75419;SDS011;63998;52.488;13.428;2023-04-03T02:19:43;5.63;;;3.00;;
75419;SDS011;63998;52.488;13.428;2023-04-03T02:22:09;6.18;;;3.30;;
75419;SDS011;63998;52.488;13.428;2023-04-03T02:24:36;3.72;;;2.40;;
75419;SDS011;63998;52.488;13.428;2023-04-03T02:27:04;5.10;;;3.13;;
75419;SDS011;63998;52.488;13.428;2023-04-03T02:29:29;13.18;;;7.47;;
75419;SDS011;63998;52.488;13.428;2023-04-03T02:31:55;16.23;;;5.63;;
75419;SDS011;63998;52.488;13.428;2023-04-03T02:34:23;9.23;;;3.58;;
75419;SDS011;63998;52.488;13.428;2023-04-03T02:36:48;13.57;;;5.28;;
75419;SDS011;63998;52.488;13.428;2023-04-03T02:39:14;11.53;;;3.67;;
75419;SDS011;63998;52.488;13.428;2023-04-03T02:41:41;15.75;;;6.00;;
75419;SDS011;63998;52.488;13.428;2023-04-03T02:44:08;25.77;;;9.55;;
75419;SDS011;63998;52.488;13.428;2023-04-03T02:46:36;15.02;;;4.35;;
75419;SDS011;63998;52.488;13.428;2023-04-03T02:49:02;16.05;;;6.50;;
75419;SDS011;63998;52.488;13.428;2023-04-03T02:51:28;15.50;;;5.68;;
75419;SDS011;63998;52.488;13.428;2023-04-03T02:53:58;22.92;;;9.75;;
75419;SDS011;63998;52.488;13.428;2023-04-03T02:56:23;15.07;;;5.88;;
75419;SDS011;63998;52.488;13.428;2023-04-03T02:58:49;14.82;;;6.10;;
75419;SDS011;63998;52.488;13.428;2023-04-03T03:01:14;22.45;;;7.95;;
75419;SDS011;63998;52.488;13.428;2023-04-03T03:03:39;8.38;;;1.85;;
75419;SDS011;63998;52.488;13.428;2023-04-03T03:06:06;7.50;;;3.40;;
75419;SDS011;63998;52.488;13.428;2023-04-03T03:08:38;4.13;;;1.98;;
75419;SDS011;63998;52.488;13.428;2023-04-03T03:11:07;22.00;;;8.70;;
75419;SDS011;63998;52.488;13.428;2023-04-03T03:13:35;12.82;;;4.32;;
75419;SDS011;63998;52.488;13.428;2023-04-03T03:16:05;4.50;;;2.17;;
75419;SDS011;63998;52.488;13.428;2023-04-03T03:18:35;9.85;;;3.80;;
75419;SDS011;63998;52.488;13.428;2023-04-03T03:21:01;10.02;;;4.40;;
75419;SDS011;63998;52.488;13.428;2023-04-03T03:23:28;14.85;;;4.55;;
75419;SDS011;63998;52.488;13.428;2023-04-03T03:26:04;9.55;;;3.92;;
75419;SDS011;63998;52.488;13.428;2023-04-03T03:28:31;6.32;;;2.92;;
75419;SDS011;63998;52.488;13.428;2023-04-03T03:31:01;13.00;;;4.55;;
75419;SDS011;63998;52.488;13.428;2023-04-03T03:33:26;7.05;;;2.80;;
75419;SDS011;63998;52.488;13.428;2023-04-03T03:35:54;7.00;;;2.70;;
75419;SDS011;63998;52.488;13.428;2023-04-03T03:38:20;6.78;;;2.97;;
75419;SDS011;63998;52.488;13.428;2023-04-03T03:40:47;6.38;;;2.67;;
75419;SDS011;63998;52.488;13.428;2023-04-03T03:43:13;9.40;;;3.28;;
75419;SDS011;63998;52.488;13.428;2023-04-03T03:45:42;5.43;;;1.95;;
75419;SDS011;63998;52.488;13.428;2023-04-03T03:48:09;7.97;;;3.47;;
75419;SDS011;63998;52.488;13.428;2023-04-03T03:50:40;6.60;;;2.53;;
75419;SDS011;63998;52.488;13.428;2023-04-03T03:53:08;8.98;;;3.95;;
75419;SDS011;63998;52.488;13.428;2023-04-03T03:55:34;6.13;;;2.27;;
75419;SDS011;63998;52.488;13.428;2023-04-03T03:58:01;4.75;;;1.33;;
75419;SDS011;63998;52.488;13.428;2023-04-03T04:00:28;8.98;;;2.45;;
75419;SDS011;63998;52.488;13.428;2023-04-03T04:02:55;5.97;;;2.20;;
75419;SDS011;63998;52.488;13.428;2023-04-03T04:05:20;11.98;;;4.57;;
75419;SDS011;63998;52.488;13.428;2023-04-03T04:07:50;9.55;;;2.53;;
75419;SDS011;63998;52.488;13.428;2023-04-03T04:10:18;9.90;;;3.03;;
75419;SDS011;63998;52.488;13.428;2023-04-03T04:12:46;12.15;;;4.75;;
75419;SDS011;63998;52.488;13.428;2023-04-03T04:15:16;10.45;;;3.08;;
75419;SDS011;63998;52.488;13.428;2023-04-03T04:17:43;4.20;;;1.90;;
75419;SDS011;63998;52.488;13.428;2023-04-03T04:20:11;7.57;;;2.80;;
75419;SDS011;63998;52.488;13.428;2023-04-03T04:22:39;2.88;;;1.27;;
75419;SDS011;63998;52.488;13.428;2023-04-03T04:25:05;6.05;;;2.45;;
75419;SDS011;63998;52.488;13.428;2023-04-03T04:27:31;9.15;;;2.47;;
75419;SDS011;63998;52.488;13.428;2023-04-03T04:29:56;13.40;;;4.50;;
75419;SDS011;63998;52.488;13.428;2023-04-03T04:32:22;4.80;;;1.73;;
75419;SDS011;63998;52.488;13.428;2023-04-03T04:34:47;7.37;;;1.93;;
75419;SDS011;63998;52.488;13.428;2023-04-03T04:37:15;2.00;;;1.00;;
75419;SDS011;63998;52.488;13.428;2023-04-03T04:39:42;7.63;;;2.03;;
75419;SDS011;63998;52.488;13.428;2023-04-03T04:42:07;2.70;;;1.40;;
75419;SDS011;63998;52.488;13.428;2023-04-03T04:44:37;4.18;;;1.02;;
75419;SDS011;63998;52.488;13.428;2023-04-03T04:47:05;3.25;;;1.38;;
75419;SDS011;63998;52.488;13.428;2023-04-03T04:49:31;2.72;;;0.93;;
75419;SDS011;63998;52.488;13.428;2023-04-03T04:51:56;5.00;;;1.30;;
75419;SDS011;63998;52.488;13.428;2023-04-03T04:54:24;2.75;;;1.13;;
75419;SDS011;63998;52.488;13.428;2023-04-03T04:56:50;7.78;;;1.25;;
75419;SDS011;63998;52.488;13.428;2023-04-03T04:59:15;3.43;;;1.10;;
75419;SDS011;63998;52.488;13.428;2023-04-03T05:01:43;2.33;;;1.30;;
75419;SDS011;63998;52.488;13.428;2023-04-03T05:04:08;2.07;;;1.00;;
75419;SDS011;63998;52.488;13.428;2023-04-03T05:06:34;5.40;;;1.23;;
75419;SDS011;63998;52.488;13.428;2023-04-03T05:09:00;5.18;;;1.27;;
75419;SDS011;63998;52.488;13.428;2023-04-03T05:11:25;6.05;;;1.30;;
75419;SDS011;63998;52.488;13.428;2023-04-03T05:13:53;3.17;;;1.10;;
75419;SDS011;63998;52.488;13.428;2023-04-03T05:16:18;2.13;;;0.95;;
75419;SDS011;63998;52.488;13.428;2023-04-03T05:18:43;2.17;;;1.03;;
75419;SDS011;63998;52.488;13.428;2023-04-03T05:21:11;5.38;;;1.00;;
75419;SDS011;63998;52.488;13.428;2023-04-03T05:23:37;3.85;;;1.33;;
75419;SDS011;63998;52.488;13.428;2023-04-03T05:26:02;2.60;;;1.10;;
75419;SDS011;63998;52.488;13.428;2023-04-03T05:28:30;3.83;;;1.50;;
75419;SDS011;63998;52.488;13.428;2023-04-03T05:30:56;5.05;;;1.00;;
75419;SDS011;63998;52.488;13.428;2023-04-03T05:33:27;4.13;;;1.10;;
75419;SDS011;63998;52.488;13.428;2023-04-03T05:35:52;6.88;;;1.17;;
75419;SDS011;63998;52.488;13.428;2023-04-03T05:38:18;2.42;;;1.48;;
75419;SDS011;63998;52.488;13.428;2023-04-03T05:40:44;22.52;;;6.50;;
75419;SDS011;63998;52.488;13.428;2023-04-03T05:43:12;5.38;;;1.67;;
75419;SDS011;63998;52.488;13.428;2023-04-03T05:45:40;5.13;;;1.80;;
75419;SDS011;63998;52.488;13.428;2023-04-03T05:48:08;5.13;;;1.60;;
75419;SDS011;63998;52.488;13.428;2023-04-03T05:50:33;4.55;;;1.52;;
75419;SDS011;63998;52.488;13.428;2023-04-03T05:52:59;3.73;;;1.23;;
75419;SDS011;63998;52.488;13.428;2023-04-03T05:55:26;8.15;;;2.08;;
75419;SDS011;63998;52.488;13.428;2023-04-03T05:57:52;3.30;;;2.20;;
75419;SDS011;63998;52.488;13.428;2023-04-03T06:00:17;6.80;;;1.67;;
75419;SDS011;63998;52.488;13.428;2023-04-03T06:02:43;3.38;;;1.27;;
75419;SDS011;63998;52.488;13.428;2023-04-03T06:05:09;4.68;;;1.40;;
75419;SDS011;63998;52.488;13.428;2023-04-03T06:07:39;4.10;;;1.85;;
75419;SDS011;63998;52.488;13.428;2023-04-03T06:10:05;1.65;;;1.00;;
75419;SDS011;63998;52.488;13.428;2023-04-03T06:12:31;6.65;;;1.25;;
75419;SDS011;63998;52.488;13.428;2023-04-03T06:14:57;2.72;;;1.42;;
75419;SDS011;63998;52.488;13.428;2023-04-03T06:17:24;4.50;;;1.38;;
75419;SDS011;63998;52.488;13.428;2023-04-03T06:19:50;2.78;;;0.90;;
75419;SDS011;63998;52.488;13.428;2023-04-03T06:22:18;4.30;;;1.10;;
75419;SDS011;63998;52.488;13.428;2023-04-03T06:24:46;3.42;;;1.55;;
75419;SDS011;63998;52.488;13.428;2023-04-03T06:27:13;4.13;;;1.00;;
75419;SDS011;63998;52.488;13.428;2023-04-03T06:29:38;6.07;;;2.03;;
75419;SDS011;63998;52.488;13.428;2023-04-03T06:32:06;2.92;;;1.10;;
75419;SDS011;63998;52.488;13.428;2023-04-03T06:34:32;5.37;;;1.40;;
75419;SDS011;63998;52.488;13.428;2023-04-03T06:36:57;4.32;;;1.30;;
75419;SDS011;63998;52.488;13.428;2023-04-03T06:39:22;2.80;;;1.30;;
75419;SDS011;63998;52.488;13.428;2023-04-03T06:41:48;6.90;;;1.77;;
75419;SDS011;63998;52.488;13.428;2023-04-03T06:44:15;6.40;;;1.75;;
75419;SDS011;63998;52.488;13.428;2023-04-03T06:46:41;1.88;;;1.00;;
75419;SDS011;63998;52.488;13.428;2023-04-03T06:49:08;4.05;;;1.73;;
75419;SDS011;63998;52.488;13.428;2023-04-03T06:51:34;5.10;;;1.42;;
75419;SDS011;63998;52.488;13.428;2023-04-03T06:54:01;3.00;;;1.35;;
75419;SDS011;63998;52.488;13.428;2023-04-03T06:56:27;3.50;;;1.00;;
75419;SDS011;63998;52.488;13.428;2023-04-03T06:58:54;2.50;;;1.15;;
75419;SDS011;63998;52.488;13.428;2023-04-03T07:01:23;5.05;;;1.25;;
75419;SDS011;63998;52.488;13.428;2023-04-03T07:06:17;4.50;;;0.90;;
75419;SDS011;63998;52.488;13.428;2023-04-03T07:08:43;3.55;;;1.02;;
75419;SDS011;63998;52.488;13.428;2023-04-03T07:11:13;3.17;;;1.13;;
75419;SDS011;63998;52.488;13.428;2023-04-03T07:13:39;3.40;;;1.10;;
75419;SDS011;63998;52.488;13.428;2023-04-03T07:16:05;2.88;;;0.68;;
75419;SDS011;63998;52.488;13.428;2023-04-03T07:18:31;1.33;;;0.80;;
75419;SDS011;63998;52.488;13.428;2023-04-03T07:20:57;4.97;;;1.08;;
75419;SDS011;63998;52.488;13.428;2023-04-03T07:23:23;3.03;;;0.90;;
75419;SDS011;63998;52.488;13.428;2023-04-03T07:25:51;3.58;;;0.90;;
75419;SDS011;63998;52.488;13.428;2023-04-03T07:28:18;2.28;;;0.70;;
75419;SDS011;63998;52.488;13.428;2023-04-03T07:30:51;3.67;;;0.93;;
75419;SDS011;63998;52.488;13.428;2023-04-03T07:35:53;2.42;;;0.70;;
75419;SDS011;63998;52.488;13.428;2023-04-03T07:38:21;1.70;;;0.75;;
75419;SDS011;63998;52.488;13.428;2023-04-03T07:40:48;3.40;;;1.20;;
75419;SDS011;63998;52.488;13.428;2023-04-03T07:43:17;2.63;;;1.00;;
75419;SDS011;63998;52.488;13.428;2023-04-03T07:45:44;2.67;;;0.60;;
75419;SDS011;63998;52.488;13.428;2023-04-03T07:48:10;4.28;;;0.77;;
75419;SDS011;63998;52.488;13.428;2023-04-03T07:50:36;3.72;;;0.90;;
75419;SDS011;63998;52.488;13.428;2023-04-03T07:53:02;2.70;;;1.00;;
75419;SDS011;63998;52.488;13.428;2023-04-03T07:55:28;2.88;;;0.70;;
75419;SDS011;63998;52.488;13.428;2023-04-03T07:57:56;5.00;;;0.90;;
75419;SDS011;63998;52.488;13.428;2023-04-03T08:00:25;3.05;;;0.73;;
75419;SDS011;63998;52.488;13.428;2023-04-03T08:02:50;4.32;;;0.80;;
75419;SDS011;63998;52.488;13.428;2023-04-03T08:05:19;2.38;;;0.90;;
75419;SDS011;63998;52.488;13.428;2023-04-03T08:07:46;3.08;;;1.20;;
75419;SDS011;63998;52.488;13.428;2023-04-03T08:10:11;2.25;;;0.75;;
75419;SDS011;63998;52.488;13.428;2023-04-03T08:12:37;4.53;;;1.25;;
75419;SDS011;63998;52.488;13.428;2023-04-03T08:15:03;3.03;;;0.82;;
75419;SDS011;63998;52.488;13.428;2023-04-03T08:17:29;2.67;;;1.00;;
75419;SDS011;63998;52.488;13.428;2023-04-03T08:19:54;2.93;;;1.00;;
75419;SDS011;63998;52.488;13.428;2023-04-03T08:22:22;2.08;;;0.70;;
75419;SDS011;63998;52.488;13.428;2023-04-03T08:24:47;3.67;;;0.90;;
75419;SDS011;63998;52.488;13.428;2023-04-03T08:27:15;2.50;;;1.03;;
75419;SDS011;63998;52.488;13.428;2023-04-03T08:29:40;8.93;;;3.45;;
75419;SDS011;63998;52.488;13.428;2023-04-03T08:32:06;8.48;;;4.40;;
75419;SDS011;63998;52.488;13.428;2023-04-03T08:34:33;5.97;;;2.78;;
75419;SDS011;63998;52.488;13.428;2023-04-03T08:37:00;10.10;;;7.45;;
75419;SDS011;63998;52.488;13.428;2023-04-03T08:39:26;6.88;;;3.92;;
75419;SDS011;63998;52.488;13.428;2023-04-03T08:41:52;4.80;;;2.30;;
75419;SDS011;63998;52.488;13.428;2023-04-03T08:44:30;4.50;;;1.38;;
75419;SDS011;63998;52.488;13.428;2023-04-03T08:47:11;3.65;;;1.42;;
75419;SDS011;63998;52.488;13.428;2023-04-03T08:49:48;5.35;;;2.30;;
75419;SDS011;63998;52.488;13.428;2023-04-03T08:52:18;4.18;;;2.60;;
75419;SDS011;63998;52.488;13.428;2023-04-03T08:56:01;4.43;;;1.20;;
75419;SDS011;63998;52.488;13.428;2023-04-03T09:00:48;7.13;;;2.28;;
75419;SDS011;63998;52.488;13.428;2023-04-03T09:03:17;4.18;;;2.00;;
75419;SDS011;63998;52.488;13.428;2023-04-03T09:05:48;4.78;;;3.72;;
75419;SDS011;63998;52.488;13.428;2023-04-03T09:14:30;4.90;;;3.80;;
75419;SDS011;63998;52.488;13.428;2023-04-03T09:17:12;4.85;;;2.85;;
75419;SDS011;63998;52.488;13.428;2023-04-03T09:19:47;4.28;;;1.90;;
75419;SDS011;63998;52.488;13.428;2023-04-03T09:22:25;5.30;;;3.22;;
75419;SDS011;63998;52.488;13.428;2023-04-03T09:25:05;4.95;;;2.95;;
75419;SDS011;63998;52.488;13.428;2023-04-03T09:27:34;3.05;;;1.30;;
75419;SDS011;63998;52.488;13.428;2023-04-03T09:29:59;14.73;;;7.28;;
75419;SDS011;63998;52.488;13.428;2023-04-03T09:32:28;11.82;;;6.20;;
75419;SDS011;63998;52.488;13.428;2023-04-03T09:35:06;8.52;;;5.72;;
75419;SDS011;63998;52.488;13.428;2023-04-03T09:37:47;3.97;;;2.50;;
75419;SDS011;63998;52.488;13.428;2023-04-03T09:42:55;7.45;;;4.30;;
75419;SDS011;63998;52.488;13.428;2023-04-03T09:48:05;6.50;;;2.13;;
75419;SDS011;63998;52.488;13.428;2023-04-03T09:50:34;4.47;;;3.55;;
75419;SDS011;63998;52.488;13.428;2023-04-03T09:53:07;4.25;;;1.50;;
75419;SDS011;63998;52.488;13.428;2023-04-03T09:55:50;8.95;;;6.75;;
75419;SDS011;63998;52.488;13.428;2023-04-03T09:58:25;7.55;;;6.47;;
75419;SDS011;63998;52.488;13.428;2023-04-03T10:00:56;3.42;;;2.00;;
75419;SDS011;63998;52.488;13.428;2023-04-03T10:03:33;3.40;;;2.80;;
75419;SDS011;63998;52.488;13.428;2023-04-03T10:06:00;5.72;;;4.53;;
75419;SDS011;63998;52.488;13.428;2023-04-03T10:08:30;4.80;;;2.13;;
75419;SDS011;63998;52.488;13.428;2023-04-03T10:11:05;2.38;;;1.67;;
75419;SDS011;63998;52.488;13.428;2023-04-03T10:14:00;1.60;;;1.40;;
75419;SDS011;63998;52.488;13.428;2023-04-03T10:16:38;1.55;;;0.80;;
75419;SDS011;63998;52.488;13.428;2023-04-03T10:21:54;1.42;;;1.00;;
75419;SDS011;63998;52.488;13.428;2023-04-03T10:24:35;3.42;;;1.65;;
75419;SDS011;63998;52.488;13.428;2023-04-03T10:30:36;1.50;;;1.20;;
75419;SDS011;63998;52.488;13.428;2023-04-03T10:33:39;4.05;;;1.10;;
75419;SDS011;63998;52.488;13.428;2023-04-03T10:35:52;1.88;;;1.25;;
75419;SDS011;63998;52.488;13.428;2023-04-03T10:38:37;3.42;;;1.27;;
75419;SDS011;63998;52.488;13.428;2023-04-03T10:41:26;3.30;;;1.30;;
75419;SDS011;63998;52.488;13.428;2023-04-03T10:44:08;2.13;;;1.10;;
75419;SDS011;63998;52.488;13.428;2023-04-03T10:57:43;2.17;;;1.25;;
75419;SDS011;63998;52.488;13.428;2023-04-03T11:00:18;5.28;;;1.65;;
75419;SDS011;63998;52.488;13.428;2023-04-03T11:02:57;2.30;;;1.35;;
75419;SDS011;63998;52.488;13.428;2023-04-03T11:05:31;3.53;;;1.45;;
75419;SDS011;63998;52.488;13.428;2023-04-03T11:10:50;3.05;;;1.30;;
75419;SDS011;63998;52.488;13.428;2023-04-03T11:13:18;2.63;;;1.17;;
75419;SDS011;63998;52.488;13.428;2023-04-03T11:15:50;4.78;;;2.28;;
75419;SDS011;63998;52.488;13.428;2023-04-03T11:18:19;5.25;;;3.00;;
75419;SDS011;63998;52.488;13.428;2023-04-03T11:20:59;14.27;;;8.75;;
75419;SDS011;63998;52.488;13.428;2023-04-03T11:23:30;3.10;;;1.20;;
75419;SDS011;63998;52.488;13.428;2023-04-03T11:26:10;2.53;;;1.55;;
75419;SDS011;63998;52.488;13.428;2023-04-03T11:28:39;3.55;;;1.30;;
75419;SDS011;63998;52.488;13.428;2023-04-03T11:31:22;3.45;;;1.30;;
75419;SDS011;63998;52.488;13.428;2023-04-03T11:36:50;2.58;;;1.45;;
75419;SDS011;63998;52.488;13.428;2023-04-03T11:39:30;16.98;;;2.38;;
75419;SDS011;63998;52.488;13.428;2023-04-03T11:42:12;4.63;;;1.80;;
75419;SDS011;63998;52.488;13.428;2023-04-03T11:44:38;3.35;;;1.00;;
75419;SDS011;63998;52.488;13.428;2023-04-03T11:47:05;1.80;;;1.10;;
75419;SDS011;63998;52.488;13.428;2023-04-03T11:53:26;1.00;;;0.90;;
75419;SDS011;63998;52.488;13.428;2023-04-03T12:03:30;3.83;;;1.10;;
75419;SDS011;63998;52.488;13.428;2023-04-03T12:35:28;2.17;;;1.08;;
75419;SDS011;63998;52.488;13.428;2023-04-03T12:38:10;1.75;;;0.60;;
75419;SDS011;63998;52.488;13.428;2023-04-03T12:46:43;2.15;;;0.90;;
75419;SDS011;63998;52.488;13.428;2023-04-03T12:51:51;2.30;;;0.90;;
75419;SDS011;63998;52.488;13.428;2023-04-03T12:54:30;2.60;;;0.82;;
75419;SDS011;63998;52.488;13.428;2023-04-03T12:57:16;2.10;;;1.02;;
75419;SDS011;63998;52.488;13.428;2023-04-03T12:59:43;1.58;;;0.95;;
75419;SDS011;63998;52.488;13.428;2023-04-03T13:02:19;2.80;;;1.10;;
75419;SDS011;63998;52.488;13.428;2023-04-03T13:04:49;3.20;;;0.80;;
75419;SDS011;63998;52.488;13.428;2023-04-03T13:10:15;1.95;;;1.00;;
75419;SDS011;63998;52.488;13.428;2023-04-03T13:15:26;1.95;;;1.10;;
75419;SDS011;63998;52.488;13.428;2023-04-03T13:18:04;2.00;;;0.80;;
75419;SDS011;63998;52.488;13.428;2023-04-03T13:20:31;4.05;;;1.30;;
75419;SDS011;63998;52.488;13.428;2023-04-03T13:23:07;2.20;;;0.80;;
75419;SDS011;63998;52.488;13.428;2023-04-03T13:25:39;1.98;;;0.73;;
75419;SDS011;63998;52.488;13.428;2023-04-03T13:28:09;1.58;;;0.52;;
75419;SDS011;63998;52.488;13.428;2023-04-03T13:30:53;2.45;;;0.73;;
75419;SDS011;63998;52.488;13.428;2023-04-03T13:33:32;1.98;;;0.90;;
75419;SDS011;63998;52.488;13.428;2023-04-03T13:36:13;2.10;;;0.85;;
75419;SDS011;63998;52.488;13.428;2023-04-03T13:38:43;2.70;;;1.00;;
75419;SDS011;63998;52.488;13.428;2023-04-03T13:41:26;5.85;;;0.98;;
75419;SDS011;63998;52.488;13.428;2023-04-03T13:43:55;1.98;;;0.93;;
75419;SDS011;63998;52.488;13.428;2023-04-03T13:46:25;2.45;;;0.98;;
75419;SDS011;63998;52.488;13.428;2023-04-03T13:48:53;2.78;;;0.80;;
75419;SDS011;63998;52.488;13.428;2023-04-03T13:51:23;2.33;;;0.85;;
75419;SDS011;63998;52.488;13.428;2023-04-03T13:56:32;3.10;;;1.00;;
75419;SDS011;63998;52.488;13.428;2023-04-03T14:04:18;2.42;;;1.15;;
75419;SDS011;63998;52.488;13.428;2023-04-03T14:06:44;2.80;;;0.90;;
75419;SDS011;63998;52.488;13.428;2023-04-03T14:09:10;4.35;;;1.23;;
75419;SDS011;63998;52.488;13.428;2023-04-03T14:11:36;2.55;;;0.80;;
75419;SDS011;63998;52.488;13.428;2023-04-03T14:14:04;2.95;;;1.00;;
75419;SDS011;63998;52.488;13.428;2023-04-03T14:16:37;2.08;;;0.80;;
75419;SDS011;63998;52.488;13.428;2023-04-03T14:19:06;3.58;;;1.00;;
75419;SDS011;63998;52.488;13.428;2023-04-03T14:21:32;2.10;;;0.93;;
75419;SDS011;63998;52.488;13.428;2023-04-03T14:23:57;1.77;;;0.83;;
75419;SDS011;63998;52.488;13.428;2023-04-03T14:28:54;2.42;;;1.20;;
75419;SDS011;63998;52.488;13.428;2023-04-03T14:31:20;3.25;;;1.20;;
75419;SDS011;63998;52.488;13.428;2023-04-03T14:33:51;1.80;;;0.85;;
75419;SDS011;63998;52.488;13.428;2023-04-03T14:36:22;2.13;;;0.70;;
75419;SDS011;63998;52.488;13.428;2023-04-03T14:38:50;2.35;;;0.98;;
75419;SDS011;63998;52.488;13.428;2023-04-03T14:41:18;2.72;;;1.40;;
75419;SDS011;63998;52.488;13.428;2023-04-03T14:43:46;3.33;;;1.60;;
75419;SDS011;63998;52.488;13.428;2023-04-03T14:46:45;1.40;;;1.00;;
75419;SDS011;63998;52.488;13.428;2023-04-03T14:49:26;2.95;;;1.40;;
75419;SDS011;63998;52.488;13.428;2023-04-03T14:51:53;1.80;;;0.90;;
75419;SDS011;63998;52.488;13.428;2023-04-03T14:54:23;4.13;;;1.20;;
75419;SDS011;63998;52.488;13.428;2023-04-03T14:56:52;5.00;;;1.45;;
75419;SDS011;63998;52.488;13.428;2023-04-03T14:59:21;4.30;;;1.30;;
75419;SDS011;63998;52.488;13.428;2023-04-03T15:01:47;3.60;;;1.38;;
75419;SDS011;63998;52.488;13.428;2023-04-03T15:04:18;4.22;;;1.20;;
75419;SDS011;63998;52.488;13.428;2023-04-03T15:06:45;3.67;;;1.98;;
75419;SDS011;63998;52.488;13.428;2023-04-03T15:09:15;4.60;;;1.45;;
75419;SDS011;63998;52.488;13.428;2023-04-03T15:11:46;6.65;;;3.97;;
75419;SDS011;63998;52.488;13.428;2023-04-03T15:14:12;7.57;;;2.90;;
75419;SDS011;63998;52.488;13.428;2023-04-03T15:16:37;4.15;;;2.15;;
75419;SDS011;63998;52.488;13.428;2023-04-03T15:19:03;4.80;;;1.85;;
75419;SDS011;63998;52.488;13.428;2023-04-03T15:21:28;6.95;;;3.13;;
75419;SDS011;63998;52.488;13.428;2023-04-03T15:23:53;5.03;;;2.67;;
75419;SDS011;63998;52.488;13.428;2023-04-03T15:26:19;8.88;;;3.95;;
75419;SDS011;63998;52.488;13.428;2023-04-03T15:28:46;12.00;;;5.15;;
75419;SDS011;63998;52.488;13.428;2023-04-03T15:31:12;13.80;;;4.78;;
75419;SDS011;63998;52.488;13.428;2023-04-03T15:33:38;7.38;;;2.72;;
75419;SDS011;63998;52.488;13.428;2023-04-03T15:36:05;9.98;;;4.57;;
75419;SDS011;63998;52.488;13.428;2023-04-03T15:38:31;13.60;;;4.68;;
75419;SDS011;63998;52.488;13.428;2023-04-03T15:40:56;9.13;;;3.35;;
75419;SDS011;63998;52.488;13.428;2023-04-03T15:43:24;17.42;;;6.10;;
75419;SDS011;63998;52.488;13.428;2023-04-03T15:45:52;5.63;;;2.15;;
75419;SDS011;63998;52.488;13.428;2023-04-03T15:48:21;14.82;;;5.35;;
75419;SDS011;63998;52.488;13.428;2023-04-03T15:50:46;24.83;;;7.97;;
75419;SDS011;63998;52.488;13.428;2023-04-03T15:53:12;4.07;;;2.03;;
75419;SDS011;63998;52.488;13.428;2023-04-03T15:55:37;8.60;;;3.08;;
75419;SDS011;63998;52.488;13.428;2023-04-03T15:58:08;18.00;;;8.25;;
75419;SDS011;63998;52.488;13.428;2023-04-03T16:00:36;36.30;;;13.65;;
75419;SDS011;63998;52.488;13.428;2023-04-03T16:03:04;15.60;;;7.00;;
75419;SDS011;63998;52.488;13.428;2023-04-03T16:05:33;47.40;;;20.55;;
75419;SDS011;63998;52.488;13.428;2023-04-03T16:08:03;55.50;;;25.77;;
75419;SDS011;63998;52.488;13.428;2023-04-03T16:10:30;34.92;;;15.70;;
75419;SDS011;63998;52.488;13.428;2023-04-03T16:12:55;42.15;;;19.10;;
75419;SDS011;63998;52.488;13.428;2023-04-03T16:15:23;28.58;;;14.88;;
75419;SDS011;63998;52.488;13.428;2023-04-03T16:17:49;45.95;;;21.40;;
75419;SDS011;63998;52.488;13.428;2023-04-03T16:20:15;13.55;;;6.82;;
75419;SDS011;63998;52.488;13.428;2023-04-03T16:22:44;12.65;;;7.30;;
75419;SDS011;63998;52.488;13.428;2023-04-03T16:25:09;27.67;;;13.98;;
75419;SDS011;63998;52.488;13.428;2023-04-03T16:27:38;5.35;;;2.28;;
75419;SDS011;63998;52.488;13.428;2023-04-03T16:30:06;6.65;;;3.28;;
75419;SDS011;63998;52.488;13.428;2023-04-03T16:32:34;5.60;;;2.63;;
75419;SDS011;63998;52.488;13.428;2023-04-03T16:35:04;13.70;;;7.80;;
75419;SDS011;63998;52.488;13.428;2023-04-03T16:39:55;6.82;;;2.40;;
75419;SDS011;63998;52.488;13.428;2023-04-03T16:42:26;11.38;;;7.60;;